Time;durP1;ratioP1;P1;durP2;ratioP2;P2;SDS_P1;SDS_P2;PMS_P1;PMS_P2;Temp;Humidity;BMP_temperature;BMP_pressure;BME280_temperature;BME280_humidity;BME280_pressure;Samples;Min_cycle;Max_cycle;Signal;HPM_P1;HPM_P2
2021/04/18 00:03:54;;;;;;;;;;;7.80;93.80;;;;;;10319914;28;19936;-67
2021/04/18 00:08:55;;;;;;;;;;;7.70;96.00;;;;;;10319910;28;19995;-67
2021/04/18 00:13:57;;;;;;;;;;;7.60;97.20;;;;;;10319635;28;20401;-67
2021/04/18 00:18:58;;;;;;;;;;;7.60;98.30;;;;;;10320410;28;20352;-67
2021/04/18 00:24:00;;;;;;;;;;;7.60;98.20;;;;;;10326786;28;20388;-67
2021/04/18 00:29:01;;;;;;;;;;;7.60;98.90;;;;;;10318833;28;20392;-67
2021/04/18 00:34:03;;;;;;;;;;;7.60;98.30;;;;;;10319279;28;20034;-67
2021/04/18 00:39:05;;;;;;;;;;;7.70;99.90;;;;;;10319587;28;19926;-67
2021/04/18 00:44:06;;;;;;;;;;;7.70;99.90;;;;;;10318430;28;19926;-67
2021/04/18 00:49:08;;;;;;;;;;;7.70;99.90;;;;;;10318883;28;19987;-67
2021/04/18 00:54:10;;;;;;;;;;;7.70;99.90;;;;;;10320132;28;19932;-68
2021/04/18 00:59:11;;;;;;;;;;;7.70;99.90;;;;;;10318322;28;20329;-67
2021/04/18 01:04:12;;;;;;;;;;;7.80;99.90;;;;;;10317945;28;20381;-68
2021/04/18 01:09:14;;;;;;;;;;;7.80;99.90;;;;;;10318198;28;20024;-67
2021/04/18 01:14:15;;;;;;;;;;;7.80;99.90;;;;;;10317636;28;20018;-67
2021/04/18 01:19:16;;;;;;;;;;;7.80;99.90;;;;;;10319790;28;19965;-67
2021/04/18 01:24:18;;;;;;;;;;;7.80;99.90;;;;;;10317625;28;19983;-67
2021/04/18 01:29:20;;;;;;;;;;;7.80;99.90;;;;;;10317040;28;20013;-67
2021/04/18 01:34:21;;;;;;;;;;;7.70;99.90;;;;;;10317047;28;19975;-67
2021/04/18 01:39:23;;;;;;;;;;;7.60;99.90;;;;;;10317872;28;19969;-67
2021/04/18 01:44:24;;;;;;;;;;;7.60;99.90;;;;;;10316408;28;20016;-68
2021/04/18 01:49:25;;;;;;;;;;;7.40;99.90;;;;;;10345780;28;20398;-67
2021/04/18 01:54:27;;;;;;;;;;;7.20;99.90;;;;;;10351805;28;20025;-67
2021/04/18 01:59:28;;;;;;;;;;;7.30;99.90;;;;;;10316209;28;20037;-67
2021/04/18 02:04:29;;;;;;;;;;;7.40;99.90;;;;;;10328294;28;19925;-67
2021/04/18 02:09:32;;;;;;;;;;;7.40;99.90;;;;;;10324063;28;19926;-68
2021/04/18 02:14:34;;;;;;;;;;;7.40;99.90;;;;;;10322524;28;20449;-67
2021/04/18 02:19:35;;;;;;;;;;;7.50;99.90;;;;;;10358572;28;19950;-67
2021/04/18 02:24:37;;;;;;;;;;;7.50;99.90;;;;;;10386517;28;19971;-67
2021/04/18 02:29:38;;;;;;;;;;;7.40;99.90;;;;;;10322906;28;19961;-67
2021/04/18 02:34:40;;;;;;;;;;;7.40;99.90;;;;;;10330318;28;19933;-67
2021/04/18 02:39:41;;;;;;;;;;;7.50;99.90;;;;;;10329703;28;19957;-68
2021/04/18 02:44:42;;;;;;;;;;;7.50;99.90;;;;;;10326972;28;20416;-67
2021/04/18 02:49:44;;;;;;;;;;;7.50;99.90;;;;;;10330901;28;20019;-67
2021/04/18 02:54:45;;;;;;;;;;;7.40;99.90;;;;;;10329185;28;19971;-67
2021/04/18 02:59:47;;;;;;;;;;;7.30;99.90;;;;;;10330206;28;19981;-67
2021/04/18 03:04:48;;;;;;;;;;;7.30;99.90;;;;;;10325638;28;19972;-67
2021/04/18 03:09:49;;;;;;;;;;;7.30;99.90;;;;;;10323497;28;20017;-67
2021/04/18 03:14:51;;;;;;;;;;;7.20;99.90;;;;;;10321540;28;19983;-67
2021/04/18 03:19:52;;;;;;;;;;;7.20;99.90;;;;;;10373847;28;19972;-67
2021/04/18 03:24:53;;;;;;;;;;;7.20;99.90;;;;;;10320670;28;19969;-67
2021/04/18 03:29:54;;;;;;;;;;;7.20;99.90;;;;;;10320730;28;19969;-67
2021/04/18 03:34:56;;;;;;;;;;;7.10;99.90;;;;;;10321265;28;20009;-67
2021/04/18 03:39:57;;;;;;;;;;;7.00;99.90;;;;;;10320815;28;19992;-67
2021/04/18 03:44:58;;;;;;;;;;;7.00;99.90;;;;;;10320007;28;20567;-67
2021/04/18 03:50:00;;;;;;;;;;;7.00;99.90;;;;;;10367541;28;19926;-67
2021/04/18 03:55:01;;;;;;;;;;;7.00;99.90;;;;;;10320859;28;19936;-67
2021/04/18 04:00:03;;;;;;;;;;;7.00;99.90;;;;;;10320508;28;19932;-68
2021/04/18 04:05:05;;;;;;;;;;;7.00;99.90;;;;;;10320528;28;19933;-67
2021/04/18 04:10:07;;;;;;;;;;;6.90;99.90;;;;;;10320750;28;19926;-67
2021/04/18 04:15:09;;;;;;;;;;;6.80;99.90;;;;;;10318861;28;20343;-67
2021/04/18 04:20:10;;;;;;;;;;;6.80;99.90;;;;;;10322286;28;19964;-67
2021/04/18 04:25:12;;;;;;;;;;;6.80;99.90;;;;;;10319642;28;20369;-67
2021/04/18 04:30:14;;;;;;;;;;;6.90;99.90;;;;;;10320263;28;19971;-67
2021/04/18 04:35:15;;;;;;;;;;;6.90;99.90;;;;;;10319658;28;19987;-68
2021/04/18 04:40:21;;;;;;;;;;;6.90;99.90;;;;;;10319089;28;19941;-67
2021/04/18 04:45:22;;;;;;;;;;;7.00;99.90;;;;;;10318040;28;19926;-68
2021/04/18 04:50:24;;;;;;;;;;;7.00;99.90;;;;;;10380535;28;19985;-67
2021/04/18 04:55:31;;;;;;;;;;;7.10;99.90;;;;;;10320547;28;19930;-67
2021/04/18 05:00:33;;;;;;;;;;;7.20;99.90;;;;;;10317323;28;20020;-68
2021/04/18 05:05:34;;;;;;;;;;;7.30;99.90;;;;;;10317623;28;20016;-67
2021/04/18 05:10:35;;;;;;;;;;;7.40;99.90;;;;;;10317461;28;19925;-67
2021/04/18 05:15:37;;;;;;;;;;;7.40;99.90;;;;;;10317841;28;20275;-67
2021/04/18 05:20:38;;;;;;;;;;;7.20;99.90;;;;;;10419577;28;19969;-67
2021/04/18 05:25:39;;;;;;;;;;;7.20;99.90;;;;;;10317868;28;19951;-67
2021/04/18 05:30:41;;;;;;;;;;;7.30;99.90;;;;;;10316903;28;19934;-68
2021/04/18 05:35:42;;;;;;;;;;;7.30;99.90;;;;;;10314992;28;20028;-68
2021/04/18 05:40:43;;;;;;;;;;;7.30;99.90;;;;;;10315235;28;20370;-69
2021/04/18 05:45:45;;;;;;;;;;;7.40;99.90;;;;;;10315671;28;19976;-68
2021/04/18 05:50:46;;;;;;;;;;;7.60;99.90;;;;;;10317324;28;19926;-68
2021/04/18 05:55:47;;;;;;;;;;;7.70;99.90;;;;;;10316281;28;20412;-69
2021/04/18 06:00:49;;;;;;;;;;;7.50;99.90;;;;;;10329071;28;19999;-69
2021/04/18 06:05:50;;;;;;;;;;;7.50;99.90;;;;;;10339500;28;19977;-68
2021/04/18 06:10:52;;;;;;;;;;;7.60;99.90;;;;;;10322513;28;19930;-70
2021/04/18 06:15:56;;;;;;;;;;;7.90;99.90;;;;;;10331811;28;19926;-69
2021/04/18 06:20:57;;;;;;;;;;;8.10;99.90;;;;;;10348934;28;19929;-69
2021/04/18 06:25:58;;;;;;;;;;;8.20;99.90;;;;;;10330926;28;19932;-69
2021/04/18 06:31:00;;;;;;;;;;;8.10;99.90;;;;;;10321123;28;19926;-69
2021/04/18 06:36:01;;;;;;;;;;;8.10;99.90;;;;;;10313625;28;19926;-69
2021/04/18 06:41:03;;;;;;;;;;;8.10;99.90;;;;;;10320914;28;20008;-70
2021/04/18 06:46:05;;;;;;;;;;;8.30;99.90;;;;;;10305852;28;20385;-69
2021/04/18 06:51:08;;;;;;;;;;;8.30;99.90;;;;;;10331642;28;19933;-69
2021/04/18 06:56:09;;;;;;;;;;;8.50;99.90;;;;;;10320976;28;19947;-69
2021/04/18 07:01:10;;;;;;;;;;;8.50;99.90;;;;;;10319738;28;20013;-68
2021/04/18 07:06:12;;;;;;;;;;;8.50;99.90;;;;;;10319140;28;19933;-69
2021/04/18 07:11:18;;;;;;;;;;;8.50;99.90;;;;;;10320522;28;19981;-68
2021/04/18 07:16:20;;;;;;;;;;;8.50;99.90;;;;;;10318464;28;19929;-69
2021/04/18 07:21:22;;;;;;;;;;;8.50;99.90;;;;;;10327529;28;19926;-69
2021/04/18 07:26:26;;;;;;;;;;;8.40;99.90;;;;;;10341723;28;19964;-69
2021/04/18 07:31:34;;;;;;;;;;;8.40;99.90;;;;;;10310184;28;19926;-69
2021/04/18 07:36:37;;;;;;;;;;;8.40;99.90;;;;;;10309106;28;19976;-70
2021/04/18 07:41:40;;;;;;;;;;;8.20;99.90;;;;;;10319245;28;20024;-70
2021/04/18 07:46:52;;;;;;;;;;;8.10;99.90;;;;;;10318714;28;20025;-69
2021/04/18 07:51:53;;;;;;;;;;;8.00;99.90;;;;;;10321916;28;20017;-70
2021/04/18 07:56:56;;;;;;;;;;;7.90;99.90;;;;;;10307196;28;19965;-69
2021/04/18 08:01:57;;;;;;;;;;;7.90;99.90;;;;;;10318448;28;19926;-70
2021/04/18 08:07:02;;;;;;;;;;;8.00;99.90;;;;;;10318633;28;20385;-69
2021/04/18 08:12:11;;;;;;;;;;;8.10;99.90;;;;;;10317569;28;19957;-70
2021/04/18 08:17:14;;;;;;;;;;;8.20;99.90;;;;;;10299857;28;20022;-69
2021/04/18 08:22:15;;;;;;;;;;;8.10;99.90;;;;;;10290472;28;20343;-70
2021/04/18 08:27:17;;;;;;;;;;;8.20;99.90;;;;;;10300261;28;19975;-69
2021/04/18 08:32:18;;;;;;;;;;;8.20;99.90;;;;;;10321269;28;19925;-61
2021/04/18 08:37:21;;;;;;;;;;;8.30;99.90;;;;;;10357416;28;20297;-61
2021/04/18 08:42:24;;;;;;;;;;;8.20;99.90;;;;;;10304152;28;20029;-61
2021/04/18 08:47:30;;;;;;;;;;;8.20;99.90;;;;;;10352504;28;19957;-61
2021/04/18 08:52:34;;;;;;;;;;;8.40;99.90;;;;;;10322763;28;20413;-61
2021/04/18 08:57:36;;;;;;;;;;;8.30;99.90;;;;;;10411079;28;19930;-61
2021/04/18 09:02:37;;;;;;;;;;;8.30;99.90;;;;;;10316482;28;19997;-61
2021/04/18 09:07:43;;;;;;;;;;;8.20;99.90;;;;;;10382949;28;19949;-61
2021/04/18 09:12:45;;;;;;;;;;;8.20;99.90;;;;;;10318669;28;20390;-61
2021/04/18 09:17:46;;;;;;;;;;;8.30;99.90;;;;;;10322294;28;19961;-61
2021/04/18 09:22:48;;;;;;;;;;;8.20;99.90;;;;;;10303222;28;19926;-61
2021/04/18 09:27:51;;;;;;;;;;;8.20;99.90;;;;;;10325989;28;20364;-61
2021/04/18 09:32:57;;;;;;;;;;;8.20;99.90;;;;;;10372676;28;20380;-60
2021/04/18 09:38:00;;;;;;;;;;;8.40;99.90;;;;;;10353292;28;19929;-60
2021/04/18 09:43:04;;;;;;;;;;;8.60;99.90;;;;;;10316520;28;19932;-60
2021/04/18 09:48:14;;;;;;;;;;;8.80;99.90;;;;;;10459730;28;20443;-60
2021/04/18 09:53:19;;;;;;;;;;;8.80;99.90;;;;;;10347399;28;20386;-60
2021/04/18 09:58:27;;;;;;;;;;;8.70;99.90;;;;;;10404613;28;19924;-60
2021/04/18 10:03:37;;;;;;;;;;;8.90;99.90;;;;;;10528811;28;20011;-60
2021/04/18 10:08:40;;;;;;;;;;;9.10;99.90;;;;;;10426391;28;20390;-60
2021/04/18 10:13:43;;;;;;;;;;;9.20;99.90;;;;;;10318263;28;19929;-60
2021/04/18 10:19:06;;;;;;;;;;;9.50;99.90;;;;;;10317236;28;20020;-60
2021/04/18 10:24:26;;;;;;;;;;;9.60;99.90;;;;;;10319119;28;19926;-60
2021/04/18 10:29:29;;;;;;;;;;;9.70;99.90;;;;;;10316187;28;20409;-60
2021/04/18 10:34:30;;;;;;;;;;;9.80;99.90;;;;;;10318810;28;19929;-60
2021/04/18 10:39:35;;;;;;;;;;;9.80;99.90;;;;;;10315238;28;20408;-60
2021/04/18 10:44:36;;;;;;;;;;;10.00;99.90;;;;;;10414777;28;19981;-60
2021/04/18 10:49:38;;;;;;;;;;;10.00;99.90;;;;;;10527266;28;20358;-60
2021/04/18 10:54:39;;;;;;;;;;;9.90;99.90;;;;;;10433420;28;20436;-60
2021/04/18 10:59:41;;;;;;;;;;;9.70;99.90;;;;;;10322658;28;19926;-60
2021/04/18 11:04:42;;;;;;;;;;;9.60;99.90;;;;;;10329901;28;19932;-60
2021/04/18 11:09:43;;;;;;;;;;;9.60;99.90;;;;;;10464851;28;19924;-60
2021/04/18 11:14:45;;;;;;;;;;;9.50;99.90;;;;;;10432441;28;20028;-60
2021/04/18 11:19:46;;;;;;;;;;;9.50;99.90;;;;;;10322550;28;20016;-60
2021/04/18 11:24:48;;;;;;;;;;;9.60;99.90;;;;;;10419441;28;19924;-60
2021/04/18 11:29:49;;;;;;;;;;;9.80;99.90;;;;;;10321818;28;20069;-60
2021/04/18 11:34:51;;;;;;;;;;;10.00;99.90;;;;;;10504187;28;20013;-60
2021/04/18 11:39:53;;;;;;;;;;;9.90;99.90;;;;;;10532012;28;20388;-60
2021/04/18 11:44:55;;;;;;;;;;;10.10;99.90;;;;;;10514894;28;20011;-60
2021/04/18 11:49:56;;;;;;;;;;;10.30;99.90;;;;;;10320942;28;20034;-60
2021/04/18 11:54:57;;;;;;;;;;;10.30;99.90;;;;;;10505968;28;20431;-60
2021/04/18 11:59:59;;;;;;;;;;;10.20;99.90;;;;;;10532634;28;20396;-60
2021/04/18 12:05:00;;;;;;;;;;;9.90;99.90;;;;;;10347825;28;20025;-60
2021/04/18 12:10:02;;;;;;;;;;;10.00;99.90;;;;;;10319448;28;20060;-60
2021/04/18 12:15:04;;;;;;;;;;;10.30;99.90;;;;;;10446462;28;20348;-60
2021/04/18 12:20:07;;;;;;;;;;;10.30;99.90;;;;;;10532497;28;19960;-60
2021/04/18 12:25:10;;;;;;;;;;;10.40;99.90;;;;;;10412839;28;20358;-61
2021/04/18 12:30:12;;;;;;;;;;;10.60;99.90;;;;;;10318322;28;19926;-60
2021/04/18 12:35:14;;;;;;;;;;;11.10;99.90;;;;;;10321311;28;19961;-60
2021/04/18 12:40:15;;;;;;;;;;;11.30;99.90;;;;;;10317221;28;20025;-61
2021/04/18 12:45:17;;;;;;;;;;;11.20;99.90;;;;;;10319045;28;20019;-61
2021/04/18 12:50:18;;;;;;;;;;;11.10;99.90;;;;;;10316244;28;20024;-61
2021/04/18 12:55:20;;;;;;;;;;;11.20;99.90;;;;;;10318652;28;20020;-60
2021/04/18 13:00:21;;;;;;;;;;;11.30;99.90;;;;;;10316338;28;20016;-60
2021/04/18 13:05:23;;;;;;;;;;;11.20;99.90;;;;;;10315176;28;19965;-60
2021/04/18 13:10:27;;;;;;;;;;;11.30;99.90;;;;;;10316538;28;20041;-60
2021/04/18 13:15:28;;;;;;;;;;;11.70;99.90;;;;;;10330524;28;20486;-60
2021/04/18 13:20:37;;;;;;;;;;;11.50;99.90;;;;;;10315867;28;19930;-60
2021/04/18 13:25:38;;;;;;;;;;;11.40;99.90;;;;;;10316570;28;20376;-60
2021/04/18 13:30:41;;;;;;;;;;;11.40;99.90;;;;;;10315700;28;20016;-60
2021/04/18 13:35:43;;;;;;;;;;;11.50;99.90;;;;;;10324114;28;20013;-60
2021/04/18 13:40:44;;;;;;;;;;;11.50;99.90;;;;;;10315823;28;20012;-60
2021/04/18 13:45:45;;;;;;;;;;;11.50;99.90;;;;;;10321648;28;19979;-60
2021/04/18 13:50:47;;;;;;;;;;;11.50;99.90;;;;;;10318647;28;20358;-60
2021/04/18 13:55:48;;;;;;;;;;;11.40;99.90;;;;;;10319438;28;20376;-60
2021/04/18 14:00:49;;;;;;;;;;;11.50;99.90;;;;;;10315943;28;20020;-60
2021/04/18 14:05:56;;;;;;;;;;;11.50;99.90;;;;;;10326111;28;19971;-60
2021/04/18 14:10:57;;;;;;;;;;;11.40;99.90;;;;;;10317158;28;20377;-61
2021/04/18 14:15:59;;;;;;;;;;;11.50;99.90;;;;;;10445608;28;20010;-60
2021/04/18 14:21:00;;;;;;;;;;;11.60;99.90;;;;;;10528694;28;19924;-60
2021/04/18 14:26:03;;;;;;;;;;;11.50;99.90;;;;;;10333583;28;19969;-60
2021/04/18 14:31:05;;;;;;;;;;;11.50;99.90;;;;;;10323115;28;20519;-60
2021/04/18 14:36:07;;;;;;;;;;;11.70;99.90;;;;;;10326001;28;19957;-60
2021/04/18 14:41:08;;;;;;;;;;;11.90;99.90;;;;;;10324009;28;20371;-61
2021/04/18 14:46:10;;;;;;;;;;;12.20;99.90;;;;;;10521527;28;19974;-61
2021/04/18 14:51:13;;;;;;;;;;;12.50;99.90;;;;;;10534851;28;19924;-61
2021/04/18 14:56:14;;;;;;;;;;;12.70;99.90;;;;;;10335015;28;20025;-61
2021/04/18 15:01:15;;;;;;;;;;;12.50;99.90;;;;;;10385210;28;19971;-61
2021/04/18 15:06:18;;;;;;;;;;;12.00;99.90;;;;;;10422047;28;19984;-61
2021/04/18 15:11:20;;;;;;;;;;;11.60;99.90;;;;;;10352581;28;19934;-61
2021/04/18 15:16:21;;;;;;;;;;;11.40;99.90;;;;;;10403798;28;19953;-60
2021/04/18 15:21:22;;;;;;;;;;;11.20;99.90;;;;;;10352149;28;20047;-61
2021/04/18 15:26:24;;;;;;;;;;;11.10;99.90;;;;;;10352889;28;20002;-60
2021/04/18 15:31:25;;;;;;;;;;;11.00;99.90;;;;;;10381783;28;20016;-61
2021/04/18 15:36:29;;;;;;;;;;;11.10;99.90;;;;;;10320914;28;19983;-60
2021/04/18 15:41:30;;;;;;;;;;;11.30;99.90;;;;;;10360727;28;20024;-60
2021/04/18 15:46:35;;;;;;;;;;;11.80;99.90;;;;;;10345789;28;20360;-60
2021/04/18 15:51:37;;;;;;;;;;;12.10;99.90;;;;;;10410540;28;20027;-60
2021/04/18 15:56:39;;;;;;;;;;;12.10;99.90;;;;;;10528001;28;20018;-61
2021/04/18 16:01:40;;;;;;;;;;;12.00;99.90;;;;;;10519954;28;19927;-60
2021/04/18 16:06:42;;;;;;;;;;;12.20;99.90;;;;;;10528731;28;20449;-60
2021/04/18 16:11:44;;;;;;;;;;;12.10;99.90;;;;;;10520584;28;19924;-61
2021/04/18 16:16:45;;;;;;;;;;;12.00;99.90;;;;;;10420378;28;19980;-60
2021/04/18 16:21:47;;;;;;;;;;;11.90;99.90;;;;;;10384393;28;19924;-61
2021/04/18 16:26:49;;;;;;;;;;;11.60;99.90;;;;;;10434638;28;20135;-60
2021/04/18 16:31:50;;;;;;;;;;;11.40;99.90;;;;;;10325188;28;19926;-60
2021/04/18 16:36:52;;;;;;;;;;;11.50;99.90;;;;;;10319271;28;19930;-60
2021/04/18 16:41:53;;;;;;;;;;;11.30;99.90;;;;;;10355866;28;20008;-60
2021/04/18 16:46:55;;;;;;;;;;;11.10;99.90;;;;;;10337339;28;20002;-60
2021/04/18 16:51:57;;;;;;;;;;;10.90;99.90;;;;;;10396369;28;20318;-60
2021/04/18 16:56:58;;;;;;;;;;;10.90;99.90;;;;;;10362334;28;20009;-60
2021/04/18 17:01:59;;;;;;;;;;;11.00;99.90;;;;;;10389031;28;20014;-61
2021/04/18 17:07:20;;;;;;;;;;;11.10;99.90;;;;;;10530447;28;20383;-60
2021/04/18 17:12:22;;;;;;;;;;;11.20;99.90;;;;;;10427462;28;19926;-60
2021/04/18 17:17:23;;;;;;;;;;;11.10;99.90;;;;;;10349997;28;20081;-60
2021/04/18 17:22:24;;;;;;;;;;;11.10;99.90;;;;;;10476215;28;19933;-60
2021/04/18 17:27:27;;;;;;;;;;;11.10;99.90;;;;;;10335422;28;20388;-61
2021/04/18 17:32:28;;;;;;;;;;;11.10;99.90;;;;;;10327505;28;20024;-61
2021/04/18 17:37:30;;;;;;;;;;;11.10;99.90;;;;;;10529794;28;19931;-61
2021/04/18 17:42:31;;;;;;;;;;;11.00;99.90;;;;;;10353367;28;19957;-61
2021/04/18 17:47:33;;;;;;;;;;;10.80;99.90;;;;;;10316853;28;19968;-60
2021/04/18 17:52:34;;;;;;;;;;;10.70;99.90;;;;;;10326228;28;19932;-60
2021/04/18 17:57:36;;;;;;;;;;;10.50;99.90;;;;;;10528156;28;20005;-60
2021/04/18 18:02:38;;;;;;;;;;;10.40;99.90;;;;;;10366940;28;19933;-61
2021/04/18 18:07:40;;;;;;;;;;;10.10;99.90;;;;;;10385995;28;20303;-60
2021/04/18 18:12:42;;;;;;;;;;;10.00;99.90;;;;;;10437665;28;20025;-60
2021/04/18 18:17:43;;;;;;;;;;;10.00;99.90;;;;;;10356472;28;19964;-60
2021/04/18 18:22:45;;;;;;;;;;;9.90;99.90;;;;;;10325986;28;20028;-60
2021/04/18 18:27:46;;;;;;;;;;;9.90;99.90;;;;;;10315578;28;19961;-60
2021/04/18 18:32:48;;;;;;;;;;;10.00;99.90;;;;;;10318962;28;20021;-60
2021/04/18 18:37:49;;;;;;;;;;;10.00;99.90;;;;;;10317159;28;19926;-60
2021/04/18 18:42:51;;;;;;;;;;;10.00;99.90;;;;;;10491257;28;20006;-60
2021/04/18 18:47:53;;;;;;;;;;;10.00;99.90;;;;;;10528194;28;19924;-60
2021/04/18 18:58:06;;;;;;;;;;;10.00;99.90;;;;;;10316063;28;20033;-61
2021/04/18 19:03:10;;;;;;;;;;;9.90;99.90;;;;;;10501657;28;19964;-60
2021/04/18 19:08:13;;;;;;;;;;;9.80;99.90;;;;;;10526767;28;19973;-60
2021/04/18 19:13:15;;;;;;;;;;;9.80;99.90;;;;;;10341819;28;19949;-60
2021/04/18 19:18:16;;;;;;;;;;;9.80;99.90;;;;;;10428835;28;20014;-60
2021/04/18 19:23:17;;;;;;;;;;;9.70;99.90;;;;;;10535045;28;20439;-60
2021/04/18 19:28:19;;;;;;;;;;;9.60;99.90;;;;;;10384249;28;20016;-60
2021/04/18 19:33:21;;;;;;;;;;;9.60;99.90;;;;;;10466257;28;19924;-61
2021/04/18 19:38:22;;;;;;;;;;;9.60;99.90;;;;;;10429629;28;19933;-61
2021/04/18 19:43:23;;;;;;;;;;;9.60;99.90;;;;;;10321578;28;20339;-60
2021/04/18 19:48:25;;;;;;;;;;;9.60;99.90;;;;;;10527527;28;19986;-60
2021/04/18 19:53:26;;;;;;;;;;;9.50;99.90;;;;;;10534152;28;20014;-60
2021/04/18 19:58:28;;;;;;;;;;;9.40;99.90;;;;;;10328122;28;20428;-60
2021/04/18 20:03:29;;;;;;;;;;;9.30;99.90;;;;;;10320626;28;19972;-60
2021/04/18 20:08:31;;;;;;;;;;;9.30;99.90;;;;;;10524350;28;19924;-61
2021/04/18 20:13:32;;;;;;;;;;;9.00;99.90;;;;;;10532706;28;20248;-60
2021/04/18 20:18:34;;;;;;;;;;;8.90;99.90;;;;;;10327753;28;19969;-60
2021/04/18 20:23:36;;;;;;;;;;;8.90;99.90;;;;;;10320644;28;19941;-60
2021/04/18 20:28:38;;;;;;;;;;;8.90;99.90;;;;;;10357084;28;19930;-60
2021/04/18 20:33:39;;;;;;;;;;;8.90;99.90;;;;;;10320161;28;20356;-60
2021/04/18 20:38:41;;;;;;;;;;;8.80;99.90;;;;;;10527660;28;19927;-60
2021/04/18 20:43:43;;;;;;;;;;;8.70;99.90;;;;;;10531366;28;20006;-60
2021/04/18 20:48:44;;;;;;;;;;;8.70;99.90;;;;;;10322721;28;20009;-60
2021/04/18 20:53:46;;;;;;;;;;;8.70;99.90;;;;;;10319843;28;19972;-60
2021/04/18 20:58:49;;;;;;;;;;;8.70;99.90;;;;;;10528487;28;20415;-60
2021/04/18 21:03:53;;;;;;;;;;;8.50;99.90;;;;;;10529791;28;20019;-60
2021/04/18 21:08:55;;;;;;;;;;;8.50;99.90;;;;;;10315780;28;19930;-60
2021/04/18 21:13:57;;;;;;;;;;;8.70;99.90;;;;;;10320476;28;19926;-60
2021/04/18 21:18:59;;;;;;;;;;;8.80;99.90;;;;;;10524894;28;20484;-60
2021/04/18 21:24:00;;;;;;;;;;;8.80;99.90;;;;;;10427732;28;20021;-60
2021/04/18 21:29:03;;;;;;;;;;;8.70;99.90;;;;;;10322863;28;19930;-66
2021/04/18 21:34:04;;;;;;;;;;;8.10;99.90;;;;;;10317585;28;20562;-66
2021/04/18 21:39:08;;;;;;;;;;;8.10;99.90;;;;;;10319884;28;20013;-66
2021/04/18 21:44:13;;;;;;;;;;;8.20;99.90;;;;;;10318067;28;20293;-67
2021/04/18 21:49:14;;;;;;;;;;;8.30;99.90;;;;;;10314607;28;19934;-66
2021/04/18 21:54:16;;;;;;;;;;;8.30;99.90;;;;;;10310625;28;19930;-66
2021/04/18 21:59:18;;;;;;;;;;;8.40;99.90;;;;;;10316763;28;19937;-66
2021/04/18 22:04:19;;;;;;;;;;;8.60;99.90;;;;;;10304868;28;19965;-66
2021/04/18 22:09:21;;;;;;;;;;;8.60;99.90;;;;;;10308422;28;20378;-66
2021/04/18 22:14:22;;;;;;;;;;;8.50;99.90;;;;;;10320960;28;20372;-66
2021/04/18 22:19:23;;;;;;;;;;;8.40;99.90;;;;;;10317551;28;19984;-66
2021/04/18 22:24:25;;;;;;;;;;;8.30;99.90;;;;;;10314292;28;19934;-66
2021/04/18 22:29:26;;;;;;;;;;;8.30;99.90;;;;;;10317290;28;19998;-66
2021/04/18 22:34:28;;;;;;;;;;;8.20;99.90;;;;;;10316634;28;20449;-66
2021/04/18 22:39:30;;;;;;;;;;;8.30;99.90;;;;;;10316329;28;20006;-66
2021/04/18 22:44:32;;;;;;;;;;;8.40;99.90;;;;;;10314703;28;20412;-66
2021/04/18 22:49:33;;;;;;;;;;;8.60;99.90;;;;;;10331922;28;20024;-66
2021/04/18 22:54:34;;;;;;;;;;;8.70;99.90;;;;;;10321315;28;19965;-66
2021/04/18 22:59:36;;;;;;;;;;;8.60;99.90;;;;;;10329258;28;20239;-66
2021/04/18 23:04:37;;;;;;;;;;;8.50;99.90;;;;;;10322622;28;20013;-66
2021/04/18 23:09:38;;;;;;;;;;;8.60;99.90;;;;;;10324163;28;19969;-66
2021/04/18 23:14:40;;;;;;;;;;;8.70;99.90;;;;;;10321408;28;20459;-66
2021/04/18 23:19:41;;;;;;;;;;;8.70;99.90;;;;;;10459051;28;20309;-67
2021/04/18 23:24:42;;;;;;;;;;;8.80;99.90;;;;;;10322372;28;19932;-67
2021/04/18 23:29:44;;;;;;;;;;;8.80;99.90;;;;;;10341106;28;19957;-67
2021/04/18 23:34:45;;;;;;;;;;;8.80;99.90;;;;;;10320951;28;20357;-67
2021/04/18 23:39:46;;;;;;;;;;;8.70;99.90;;;;;;10402592;28;19926;-66
2021/04/18 23:44:48;;;;;;;;;;;8.60;99.90;;;;;;10376177;28;19928;-66
2021/04/18 23:49:49;;;;;;;;;;;8.50;99.90;;;;;;10331539;28;19973;-66
2021/04/18 23:54:51;;;;;;;;;;;8.50;99.90;;;;;;10327998;28;20008;-67
2021/04/18 23:59:52;;;;;;;;;;;8.50;99.90;;;;;;10320222;28;20013;-66
